createdAt,value
2019-04-23T00:00:56.438Z,3.17
2019-04-23T00:03:19.927Z,3.00
2019-04-23T00:06:16.938Z,3.43
2019-04-23T00:08:44.818Z,2.97
2019-04-23T00:10:53.981Z,2.70
2019-04-23T00:13:24.757Z,3.00
2019-04-23T00:15:58.723Z,2.60
2019-04-23T00:18:30.741Z,2.73
2019-04-23T00:20:57.721Z,2.90
2019-04-23T00:23:25.300Z,3.27
2019-04-23T00:26:33.260Z,3.20
2019-04-23T00:33:49.604Z,3.47
2019-04-23T00:36:29.595Z,3.90
2019-04-23T00:38:55.831Z,3.07
2019-04-23T00:41:15.926Z,2.93
2019-04-23T00:43:52.736Z,2.97
2019-04-23T00:46:16.957Z,3.67
2019-04-23T00:48:52.259Z,3.80
2019-04-23T00:51:11.663Z,3.20
2019-04-23T00:53:43.932Z,3.50
2019-04-23T00:56:32.358Z,3.63
2019-04-23T01:01:11.123Z,3.63
2019-04-23T01:03:39.466Z,4.07
2019-04-23T01:06:15.917Z,4.00
2019-04-23T01:08:59.485Z,3.70
2019-04-23T01:11:11.239Z,4.60
2019-04-23T01:13:48.117Z,3.50
2019-04-23T01:16:10.023Z,3.73
2019-04-23T01:21:03.690Z,3.90
2019-04-23T01:23:56.531Z,3.70
2019-04-23T01:26:46.695Z,3.40
2019-04-23T01:29:14.121Z,4.10
2019-04-23T01:31:47.871Z,3.80
2019-04-23T01:34:19.982Z,3.90
2019-04-23T01:36:46.473Z,3.90
2019-04-23T01:39:14.400Z,4.20
2019-04-23T01:41:47.529Z,3.50
2019-04-23T01:44:14.356Z,3.87
2019-04-23T01:46:45.779Z,4.30
2019-04-23T01:49:14.115Z,4.53
2019-04-23T01:54:09.139Z,4.33
2019-04-23T01:56:42.052Z,4.17
2019-04-23T02:01:46.296Z,4.60
2019-04-23T02:04:18.895Z,3.63
2019-04-23T02:06:39.171Z,4.80
2019-04-23T02:09:12.438Z,4.00
2019-04-23T02:11:37.361Z,3.80
2019-04-23T02:14:16.354Z,3.67
2019-04-23T02:16:44.156Z,4.20
2019-04-23T02:19:11.454Z,3.93
2019-04-23T02:21:45.238Z,4.30
2019-04-23T02:24:15.421Z,4.77
2019-04-23T02:26:39.903Z,4.43
2019-04-23T02:29:15.920Z,4.13
2019-04-23T02:34:25.786Z,4.20
2019-04-23T02:36:53.723Z,4.07
2019-04-23T02:39:31.218Z,4.40
2019-04-23T02:46:41.496Z,4.10
2019-04-23T02:54:34.991Z,4.47
2019-04-23T02:56:48.990Z,4.20
2019-04-23T02:59:28.172Z,3.97
2019-04-23T03:01:32.035Z,3.87
2019-04-23T03:04:17.513Z,4.00
2019-04-23T03:06:38.877Z,4.73
2019-04-23T03:09:14.891Z,4.60
2019-04-23T03:14:11.999Z,5.00
2019-04-23T03:22:05.953Z,4.67
2019-04-23T03:25:25.328Z,4.60
2019-04-23T03:27:41.859Z,4.93
2019-04-23T03:34:38.394Z,4.47
2019-04-23T03:35:31.123Z,3.83
2019-04-23T03:37:40.127Z,4.50
2019-04-23T03:42:57.583Z,5.17
2019-04-23T03:45:17.264Z,4.50
2019-04-23T03:52:39.163Z,4.43
2019-04-23T03:55:12.641Z,4.00
2019-04-23T03:57:43.259Z,5.43
2019-04-23T04:00:13.080Z,5.40
2019-04-23T04:05:01.304Z,4.60
2019-04-23T04:09:59.393Z,4.70
2019-04-23T04:12:35.458Z,4.80
2019-04-23T04:15:07.827Z,4.87
2019-04-23T04:17:28.281Z,4.33
2019-04-23T04:20:11.106Z,4.47
2019-04-23T04:22:43.999Z,5.03
2019-04-23T04:25:02.426Z,5.23
2019-04-23T04:27:43.400Z,5.17
2019-04-23T04:32:54.206Z,5.17
2019-04-23T04:40:04.628Z,5.00
2019-04-23T04:50:00.225Z,5.27
2019-04-23T04:52:44.634Z,5.20
2019-04-23T04:55:00.094Z,5.13
2019-04-23T04:57:36.735Z,5.27
2019-04-23T05:00:06.815Z,5.90
2019-04-23T05:05:30.717Z,4.90
2019-04-23T05:07:28.303Z,4.53
2019-04-23T05:12:24.168Z,5.40
2019-04-23T05:17:55.549Z,5.07
2019-04-23T05:20:16.712Z,5.30
2019-04-23T05:22:48.775Z,5.83
2019-04-23T05:25:09.141Z,5.43
2019-04-23T05:27:47.243Z,5.60
2019-04-23T05:32:45.498Z,5.27
2019-04-23T05:35:10.085Z,5.60
2019-04-23T05:37:50.490Z,5.20
2019-04-23T05:40:22.068Z,4.90
2019-04-23T05:42:39.855Z,4.80
2019-04-23T05:45:00.853Z,6.50
2019-04-23T05:47:56.754Z,5.63
2019-04-23T05:50:15.589Z,6.10
2019-04-23T05:52:41.318Z,6.83
2019-04-23T05:55:01.819Z,5.63
2019-04-23T05:57:36.237Z,5.00
2019-04-23T06:00:02.481Z,5.30
2019-04-23T06:02:36.141Z,5.30
2019-04-23T06:05:05.916Z,5.03
2019-04-23T06:07:42.262Z,5.07
2019-04-23T06:10:19.801Z,5.30
2019-04-23T06:12:50.936Z,5.10
2019-04-23T06:15:32.412Z,5.63
2019-04-23T06:18:11.147Z,5.10
2019-04-23T06:20:34.941Z,6.00
2019-04-23T06:23:05.753Z,5.53
2019-04-23T06:25:54.264Z,6.03
2019-04-23T06:28:05.099Z,5.63
2019-04-23T06:30:40.605Z,6.20
2019-04-23T06:32:59.648Z,6.03
2019-04-23T06:35:28.650Z,5.60
2019-04-23T06:38:32.968Z,4.93
2019-04-23T06:40:33.630Z,5.10
2019-04-23T06:43:05.245Z,5.30
2019-04-23T06:45:32.173Z,6.33
2019-04-23T06:48:09.042Z,6.00
2019-04-23T06:50:34.650Z,5.50
2019-04-23T06:52:54.529Z,6.70
2019-04-23T06:58:05.083Z,5.90
2019-04-23T07:03:09.406Z,5.60
2019-04-23T07:06:04.548Z,5.30
2019-04-23T07:08:32.498Z,6.27
2019-04-23T07:11:00.681Z,5.60
2019-04-23T07:13:36.146Z,6.40
2019-04-23T07:15:58.723Z,7.00
2019-04-23T07:18:22.619Z,5.53
2019-04-23T07:20:53.172Z,5.27
2019-04-23T07:23:35.712Z,5.13
2019-04-23T07:25:56.784Z,5.60
2019-04-23T07:28:29.023Z,5.87
2019-04-23T07:31:00.446Z,5.20
2019-04-23T07:33:31.217Z,5.50
2019-04-23T07:35:57.865Z,5.43
2019-04-23T07:38:52.939Z,5.60
2019-04-23T07:41:18.334Z,6.53
2019-04-23T07:44:00.943Z,5.10
2019-04-23T07:47:03.340Z,5.53
2019-04-23T07:49:16.277Z,5.80
2019-04-23T07:52:00.833Z,7.10
2019-04-23T07:54:22.490Z,5.53
2019-04-23T07:56:53.046Z,4.90
2019-04-23T07:59:22.741Z,5.73
2019-04-23T08:01:49.107Z,5.30
2019-04-23T08:04:29.181Z,5.50
2019-04-23T08:06:52.423Z,4.80
2019-04-23T08:14:13.566Z,5.53
2019-04-23T08:16:43.935Z,5.13
2019-04-23T08:19:17.008Z,5.60
2019-04-23T08:21:45.970Z,4.70
2019-04-23T08:25:14.073Z,4.77
2019-04-23T08:30:00.472Z,5.43
2019-04-23T08:32:21.772Z,5.50
2019-04-23T08:37:58.491Z,5.80
2019-04-23T08:40:13.323Z,5.50
2019-04-23T08:42:45.598Z,7.13
2019-04-23T08:48:21.817Z,5.87
2019-04-23T08:53:30.964Z,5.90
2019-04-23T08:55:44.270Z,5.57
2019-04-23T08:58:13.437Z,5.70
2019-04-23T09:00:56.477Z,5.30
2019-04-23T09:03:20.299Z,5.83
2019-04-23T09:05:52.256Z,5.87
2019-04-23T09:08:23.388Z,6.70
2019-04-23T09:11:30.081Z,6.30
2019-04-23T09:13:54.824Z,5.43
2019-04-23T09:16:11.994Z,5.40
2019-04-23T09:18:41.921Z,4.60
2019-04-23T09:21:15.591Z,5.53
2019-04-23T09:23:50.798Z,5.70
2019-04-23T09:26:06.183Z,5.17
2019-04-23T09:28:51.811Z,4.80
2019-04-23T09:31:30.448Z,5.30
2019-04-23T09:34:12.897Z,5.73
2019-04-23T09:37:06.221Z,5.47
2019-04-23T09:39:58.815Z,4.30
2019-04-23T09:42:54.328Z,5.80
2019-04-23T09:45:51.655Z,5.47
2019-04-23T09:48:18.368Z,5.07
2019-04-23T09:50:46.836Z,5.70
2019-04-23T09:53:17.169Z,5.23
2019-04-23T09:55:38.743Z,5.37
2019-04-23T09:58:13.833Z,5.30
2019-04-23T10:00:52.173Z,6.00
2019-04-23T10:03:20.075Z,4.70
2019-04-23T10:05:48.782Z,5.80
2019-04-23T10:08:17.488Z,5.50
2019-04-23T10:10:40.455Z,5.60
2019-04-23T10:13:08.399Z,4.47
2019-04-23T10:15:40.163Z,5.50
2019-04-23T10:18:05.127Z,5.37
2019-04-23T10:20:34.267Z,5.17
2019-04-23T10:23:02.344Z,4.90
2019-04-23T10:25:30.212Z,5.80
2019-04-23T10:28:01.632Z,5.30
2019-04-23T10:30:28.859Z,5.50
2019-04-23T10:32:57.844Z,5.47
2019-04-23T10:35:38.685Z,4.80
2019-04-23T10:38:03.672Z,4.90
2019-04-23T10:40:31.429Z,4.60
2019-04-23T10:42:56.509Z,5.93
2019-04-23T10:46:03.948Z,4.77
2019-04-23T10:49:11.057Z,4.63
2019-04-23T10:51:35.370Z,5.30
2019-04-23T10:54:17.853Z,5.30
2019-04-23T10:58:54.432Z,5.00
2019-04-23T11:01:39.090Z,4.70
2019-04-23T11:06:44.344Z,4.47
2019-04-23T11:09:23.036Z,4.90
2019-04-23T11:11:46.129Z,4.40
2019-04-23T11:14:19.771Z,4.60
2019-04-23T11:19:17.222Z,4.87
2019-04-23T11:21:56.203Z,4.53
2019-04-23T11:24:33.054Z,5.27
2019-04-23T11:26:49.648Z,4.33
2019-04-23T11:29:27.964Z,5.33
2019-04-23T11:32:19.923Z,4.63
2019-04-23T11:34:35.121Z,3.87
2019-04-23T11:36:54.317Z,3.80
2019-04-23T11:39:16.264Z,3.80
2019-04-23T11:44:26.896Z,4.80
2019-04-23T11:49:48.137Z,4.77
2019-04-23T11:54:54.631Z,3.90
2019-04-23T11:57:32.592Z,4.17
2019-04-23T12:02:38.567Z,3.90
2019-04-23T12:05:29.837Z,4.00
2019-04-23T12:08:11.665Z,3.47
2019-04-23T12:11:00.494Z,3.20
2019-04-23T12:13:26.895Z,3.30
2019-04-23T12:18:25.467Z,2.73
2019-04-23T12:20:48.622Z,2.60
2019-04-23T12:23:31.937Z,2.63
2019-04-23T12:26:03.152Z,2.60
2019-04-23T12:28:40.819Z,2.90
2019-04-23T12:30:57.304Z,3.20
2019-04-23T12:33:36.173Z,3.97
2019-04-23T12:36:34.050Z,2.90
2019-04-23T12:38:49.280Z,2.97
2019-04-23T12:41:20.966Z,3.27
2019-04-23T12:43:49.424Z,3.13
2019-04-23T12:46:26.682Z,3.00
2019-04-23T12:48:56.749Z,3.87
2019-04-23T12:51:26.722Z,3.70
2019-04-23T12:53:45.480Z,3.40
2019-04-23T12:56:20.401Z,4.67
2019-04-23T12:58:41.565Z,3.80
2019-04-23T13:01:30.872Z,3.73
2019-04-23T13:04:03.449Z,4.57
2019-04-23T13:06:17.295Z,3.40
2019-04-23T13:08:58.067Z,4.30
2019-04-23T13:11:31.501Z,4.00
2019-04-23T13:13:56.444Z,4.47
2019-04-23T13:16:25.252Z,3.87
2019-04-23T13:18:50.050Z,4.53
2019-04-23T13:21:45.281Z,3.33
2019-04-23T13:24:04.122Z,3.93
2019-04-23T13:26:30.910Z,3.03
2019-04-23T13:29:01.437Z,3.37
2019-04-23T13:31:30.056Z,3.63
2019-04-23T13:33:58.441Z,2.97
2019-04-23T13:36:41.810Z,3.90
2019-04-23T13:38:56.682Z,3.67
2019-04-23T13:41:23.129Z,3.80
2019-04-23T13:44:10.000Z,4.20
2019-04-23T13:46:45.532Z,3.30
2019-04-23T13:48:55.451Z,4.20
2019-04-23T13:51:27.364Z,4.80
2019-04-23T13:53:57.086Z,3.47
2019-04-23T13:56:39.290Z,3.93
2019-04-23T13:59:09.377Z,3.00
2019-04-23T14:01:37.207Z,4.17
2019-04-23T14:04:11.798Z,3.20
2019-04-23T14:06:39.523Z,3.47
2019-04-23T14:09:14.445Z,3.63
2019-04-23T14:11:31.954Z,3.33
2019-04-23T14:14:22.292Z,3.63
2019-04-23T14:19:06.845Z,4.87
2019-04-23T14:21:45.193Z,2.90
2019-04-23T14:26:39.633Z,4.47
2019-04-23T14:29:18.264Z,3.30
2019-04-23T14:31:54.922Z,2.63
2019-04-23T14:34:15.808Z,2.97
2019-04-23T14:37:00.386Z,3.47
2019-04-23T14:39:28.687Z,3.47
2019-04-23T14:42:03.670Z,3.20
2019-04-23T14:44:25.814Z,3.50
2019-04-23T14:47:14.668Z,3.30
2019-04-23T14:49:56.658Z,3.20
2019-04-23T14:52:12.302Z,3.70
2019-04-23T14:55:30.798Z,3.73
2019-04-23T14:57:35.283Z,3.30
2019-04-23T14:59:57.351Z,3.83
2019-04-23T15:04:54.106Z,3.20
2019-04-23T15:07:31.372Z,4.00
2019-04-23T15:10:26.367Z,3.40
2019-04-23T15:13:00.034Z,3.27
2019-04-23T15:15:25.236Z,4.20
2019-04-23T15:17:55.669Z,3.37
2019-04-23T15:20:28.717Z,3.70
2019-04-23T15:25:40.211Z,3.60
2019-04-23T15:30:23.369Z,4.23
2019-04-23T15:36:03.857Z,3.60
2019-04-23T15:38:18.504Z,3.30
2019-04-23T15:40:25.180Z,3.80
2019-04-23T15:43:04.237Z,3.63
2019-04-23T15:45:28.440Z,3.53
2019-04-23T15:48:03.610Z,2.90
2019-04-23T15:52:59.741Z,3.20
2019-04-23T15:55:27.670Z,2.93
2019-04-23T15:58:09.800Z,4.40
2019-04-23T16:00:24.917Z,3.47
2019-04-23T16:02:29.342Z,3.23
2019-04-23T16:04:58.064Z,2.77
2019-04-23T16:07:44.195Z,4.07
2019-04-23T16:10:25.970Z,3.80
2019-04-23T16:12:58.297Z,3.33
2019-04-23T16:15:19.341Z,3.60
2019-04-23T16:18:13.795Z,3.70
2019-04-23T16:23:13.864Z,3.47
2019-04-23T16:25:36.364Z,3.90
2019-04-23T16:28:12.888Z,7.07
2019-04-23T16:30:42.291Z,5.90
2019-04-23T16:35:58.574Z,3.30
2019-04-23T16:40:47.624Z,3.80
2019-04-23T16:43:19.961Z,3.00
2019-04-23T16:48:36.558Z,3.20
2019-04-23T16:53:30.258Z,4.87
2019-04-23T16:55:56.536Z,5.60
2019-04-23T16:58:29.457Z,2.60
2019-04-23T17:01:00.371Z,3.97
2019-04-23T17:05:59.430Z,3.23
2019-04-23T17:11:09.722Z,3.10
2019-04-23T17:13:19.287Z,3.20
2019-04-23T17:20:52.843Z,3.90
2019-04-23T17:25:48.869Z,3.37
2019-04-23T17:31:19.267Z,2.90
2019-04-23T17:33:34.709Z,3.30
2019-04-23T17:36:32.074Z,3.73
2019-04-23T17:38:56.866Z,3.53
2019-04-23T17:41:43.571Z,3.00
2019-04-23T17:44:18.151Z,3.03
2019-04-23T17:46:34.193Z,3.00
2019-04-23T17:49:08.142Z,3.17
2019-04-23T17:51:30.995Z,2.97
2019-04-23T17:54:10.875Z,3.60
2019-04-23T18:01:59.460Z,4.17
2019-04-23T18:04:20.679Z,4.43
2019-04-23T18:06:51.034Z,3.93
2019-04-23T18:09:25.617Z,4.63
2019-04-23T18:14:16.480Z,4.37
2019-04-23T18:19:24.591Z,4.40
2019-04-23T18:24:57.908Z,4.53
2019-04-23T18:27:23.505Z,4.37
2019-04-23T18:33:35.433Z,4.13
2019-04-23T18:35:27.949Z,4.10
2019-04-23T18:37:56.844Z,4.43
2019-04-23T18:40:28.719Z,3.93
2019-04-23T18:43:19.538Z,4.33
2019-04-23T18:45:31.565Z,4.83
2019-04-23T18:48:26.122Z,4.70
2019-04-23T18:54:56.860Z,4.50
2019-04-23T19:01:26.294Z,4.80
2019-04-23T19:14:39.184Z,4.73
2019-04-23T19:21:17.284Z,4.50
2019-04-23T19:24:27.824Z,5.23
2019-04-23T19:27:16.810Z,3.90
2019-04-23T19:30:39.761Z,4.53
2019-04-23T19:40:46.654Z,4.43
2019-04-23T20:17:43.228Z,4.20
2019-04-23T20:20:38.348Z,4.03
2019-04-23T20:38:33.538Z,4.70
2019-04-23T20:48:09.380Z,5.00
2019-04-23T20:58:22.548Z,4.10
2019-04-23T21:00:12.320Z,4.90
2019-04-23T21:03:25.729Z,5.83
2019-04-23T21:06:08.791Z,4.20
2019-04-23T21:09:02.696Z,4.20
2019-04-23T21:10:58.257Z,5.87
2019-04-23T21:16:38.968Z,4.17
2019-04-23T21:20:00.932Z,3.63
2019-04-23T21:22:55.870Z,4.13
2019-04-23T21:25:05.702Z,3.23
2019-04-23T21:28:37.173Z,4.43
2019-04-23T21:31:28.501Z,5.00
2019-04-23T21:34:45.397Z,4.53
2019-04-23T21:37:53.665Z,4.93
2019-04-23T21:42:52.979Z,3.50
2019-04-23T21:47:15.328Z,4.07
2019-04-23T21:50:03.304Z,4.60
2019-04-23T21:52:30.451Z,3.90
2019-04-23T21:54:51.181Z,4.90
2019-04-23T21:57:27.348Z,4.27
2019-04-23T21:59:50.557Z,4.10
2019-04-23T22:02:27.603Z,4.10
2019-04-23T22:07:29.336Z,4.43
2019-04-23T22:12:28.253Z,6.13
2019-04-23T22:14:51.990Z,7.47
2019-04-23T22:17:25.947Z,4.57
2019-04-23T22:20:06.031Z,4.40
2019-04-23T22:25:27.710Z,3.97
2019-04-23T22:27:54.909Z,3.63
2019-04-23T22:30:28.709Z,4.10
2019-04-23T22:32:56.174Z,4.57
2019-04-23T22:35:37.951Z,4.30
2019-04-23T22:38:01.005Z,4.53
2019-04-23T22:40:16.319Z,4.67
2019-04-23T22:43:16.083Z,4.43
2019-04-23T22:45:27.538Z,5.13
2019-04-23T22:47:59.871Z,3.83
2019-04-23T22:50:29.079Z,4.00
2019-04-23T22:55:49.768Z,3.87
2019-04-23T23:00:49.886Z,3.93
2019-04-23T23:03:06.395Z,4.13
2019-04-23T23:05:56.208Z,4.70
2019-04-23T23:10:48.639Z,4.03
2019-04-23T23:13:13.737Z,4.43
2019-04-23T23:15:49.344Z,4.40
2019-04-23T23:18:19.669Z,5.23
2019-04-23T23:20:48.895Z,5.37
2019-04-23T23:26:06.711Z,5.30
2019-04-23T23:28:20.189Z,5.40
2019-04-23T23:30:57.988Z,3.43
2019-04-23T23:33:17.271Z,4.03
2019-04-23T23:35:56.856Z,5.40
2019-04-23T23:38:31.397Z,4.17
2019-04-23T23:40:57.093Z,4.67
2019-04-23T23:43:34.551Z,4.40
2019-04-23T23:48:23.950Z,4.53
2019-04-23T23:51:00.453Z,4.80
2019-04-23T23:53:29.794Z,5.47
2019-04-23T23:56:05.153Z,4.73
2019-04-23T23:58:29.094Z,4.87
